Time;durP1;ratioP1;P1;durP2;ratioP2;P2;SDS_P1;SDS_P2;PMS_P1;PMS_P2;Temp;Humidity;BMP_temperature;BMP_pressure;BME280_temperature;BME280_humidity;BME280_pressure;Samples;Min_cycle;Max_cycle;Signal;HPM_P1;HPM_P2
2024/01/15 00:00:18;;;;;;;76.53;50.63;;;;;;;;;;5049096;28;20037;-60
2024/01/15 00:02:44;;;;;;;73.10;51.70;;;;;;;;;;5053091;28;20048;-60
2024/01/15 00:05:10;;;;;;;80.23;52.83;;;;;;;;;;5049324;28;20379;-61
2024/01/15 00:07:36;;;;;;;73.33;50.90;;;;;;;;;;5053698;28;20110;-60
2024/01/15 00:10:24;;;;;;;75.43;51.77;;;;;;;;;;5053388;28;20047;-60
2024/01/15 00:12:50;;;;;;;76.20;51.23;;;;;;;;;;5054749;28;20031;-60
2024/01/15 00:15:16;;;;;;;76.23;49.93;;;;;;;;;;5053569;28;20021;-60
2024/01/15 00:17:42;;;;;;;74.10;51.43;;;;;;;;;;5052656;28;20033;-60
2024/01/15 00:20:08;;;;;;;77.50;51.50;;;;;;;;;;5051290;28;20045;-60
2024/01/15 00:22:35;;;;;;;82.87;54.20;;;;;;;;;;5054493;28;20124;-60
2024/01/15 00:25:01;;;;;;;78.73;52.50;;;;;;;;;;5052081;28;20118;-60
2024/01/15 00:27:27;;;;;;;81.80;53.30;;;;;;;;;;5052071;28;20029;-60
2024/01/15 00:29:54;;;;;;;80.10;52.20;;;;;;;;;;5050569;28;20028;-61
2024/01/15 00:32:20;;;;;;;78.20;54.07;;;;;;;;;;5054203;28;20417;-61
2024/01/15 00:34:46;;;;;;;75.70;52.07;;;;;;;;;;5033868;28;20048;-61
2024/01/15 00:37:12;;;;;;;78.80;52.33;;;;;;;;;;5054241;28;20479;-61
2024/01/15 00:39:38;;;;;;;77.27;53.00;;;;;;;;;;5053485;28;20191;-61
2024/01/15 00:42:04;;;;;;;76.97;52.70;;;;;;;;;;5052763;28;20379;-61
2024/01/15 00:44:30;;;;;;;77.90;50.90;;;;;;;;;;5054253;28;20021;-61
2024/01/15 00:46:56;;;;;;;75.57;51.67;;;;;;;;;;5053335;28;20028;-61
2024/01/15 00:49:22;;;;;;;81.67;53.47;;;;;;;;;;5052044;28;20067;-61
2024/01/15 00:51:48;;;;;;;78.23;52.63;;;;;;;;;;5053832;28;20096;-61
2024/01/15 00:54:14;;;;;;;80.37;53.67;;;;;;;;;;5052198;28;20052;-61
2024/01/15 00:56:40;;;;;;;76.77;52.17;;;;;;;;;;5053855;28;20056;-61
2024/01/15 00:59:07;;;;;;;80.60;54.13;;;;;;;;;;5045618;28;20029;-61
2024/01/15 01:01:46;;;;;;;82.30;53.67;;;;;;;;;;5051340;28;20040;-61
2024/01/15 01:04:12;;;;;;;77.67;52.27;;;;;;;;;;5040184;28;20454;-61
2024/01/15 01:06:39;;;;;;;80.33;54.20;;;;;;;;;;5045769;28;20029;-61
2024/01/15 01:09:05;;;;;;;81.10;53.70;;;;;;;;;;5053910;28;20068;-61
2024/01/15 01:11:49;;;;;;;75.30;52.40;;;;;;;;;;5051235;28;20166;-61
2024/01/15 01:14:15;;;;;;;74.97;51.30;;;;;;;;;;5051219;28;20025;-61
2024/01/15 01:16:41;;;;;;;72.67;51.83;;;;;;;;;;5051150;28;20020;-61
2024/01/15 01:19:07;;;;;;;78.57;52.87;;;;;;;;;;5053516;28;20541;-61
2024/01/15 01:21:33;;;;;;;75.93;53.03;;;;;;;;;;5051540;28;20041;-61
2024/01/15 01:23:59;;;;;;;78.60;53.47;;;;;;;;;;5053668;28;20390;-61
2024/01/15 01:26:26;;;;;;;75.00;51.10;;;;;;;;;;5048940;28;20025;-62
2024/01/15 01:28:52;;;;;;;76.53;52.33;;;;;;;;;;5046630;28;20101;-61
2024/01/15 01:31:18;;;;;;;72.77;51.80;;;;;;;;;;5040645;28;20355;-61
2024/01/15 01:33:43;;;;;;;77.90;52.50;;;;;;;;;;5052547;28;20029;-61
2024/01/15 01:36:10;;;;;;;75.83;51.43;;;;;;;;;;5052914;28;20029;-61
2024/01/15 01:38:36;;;;;;;75.13;51.20;;;;;;;;;;5042465;28;20467;-61
2024/01/15 01:41:02;;;;;;;73.07;51.23;;;;;;;;;;5051003;28;20069;-61
2024/01/15 01:43:28;;;;;;;76.37;51.37;;;;;;;;;;5053062;28;20021;-61
2024/01/15 01:45:58;;;;;;;71.90;49.40;;;;;;;;;;5050544;28;20464;-61
2024/01/15 01:48:25;;;;;;;76.40;48.83;;;;;;;;;;5053204;28;20424;-61
2024/01/15 01:50:51;;;;;;;74.33;51.07;;;;;;;;;;5051772;28;20119;-61
2024/01/15 01:53:36;;;;;;;70.50;46.43;;;;;;;;;;5051985;28;20032;-62
2024/01/15 01:56:03;;;;;;;67.97;48.88;;;;;;;;;;5051468;28;20497;-61
2024/01/15 01:58:29;;;;;;;75.40;48.67;;;;;;;;;;5049966;28;20020;-61
2024/01/15 02:00:56;;;;;;;73.07;50.23;;;;;;;;;;5049555;28;20041;-61
2024/01/15 02:03:22;;;;;;;76.90;50.30;;;;;;;;;;5053011;28;20017;-62
2024/01/15 02:05:49;;;;;;;74.67;50.53;;;;;;;;;;5051799;28;20053;-61
2024/01/15 02:08:15;;;;;;;71.70;49.77;;;;;;;;;;5052465;28;20028;-62
2024/01/15 02:10:41;;;;;;;78.73;51.47;;;;;;;;;;5051041;28;20108;-61
2024/01/15 02:13:07;;;;;;;75.87;50.40;;;;;;;;;;5050593;28;20114;-61
2024/01/15 02:15:33;;;;;;;76.03;51.80;;;;;;;;;;5048475;28;20025;-61
2024/01/15 02:18:04;;;;;;;72.70;50.97;;;;;;;;;;5051041;28;20057;-61
2024/01/15 02:20:30;;;;;;;75.10;51.23;;;;;;;;;;5049279;28;20439;-61
2024/01/15 02:23:12;;;;;;;74.03;49.67;;;;;;;;;;5050031;28;20025;-61
2024/01/15 02:25:40;;;;;;;72.10;49.00;;;;;;;;;;5036913;28;20386;-61
2024/01/15 02:28:06;;;;;;;74.50;50.37;;;;;;;;;;5051015;28;20025;-61
2024/01/15 02:30:32;;;;;;;71.03;49.33;;;;;;;;;;5048942;28;20061;-62
2024/01/15 02:32:58;;;;;;;74.00;51.00;;;;;;;;;;5050783;28;20036;-61
2024/01/15 02:35:24;;;;;;;71.33;50.73;;;;;;;;;;5049395;28;20051;-61
2024/01/15 02:37:50;;;;;;;73.37;51.07;;;;;;;;;;5050106;28;20367;-61
2024/01/15 02:40:16;;;;;;;77.93;49.70;;;;;;;;;;5050457;28;20068;-61
2024/01/15 02:42:42;;;;;;;74.40;50.50;;;;;;;;;;5048841;28;20581;-62
2024/01/15 02:45:21;;;;;;;72.23;49.37;;;;;;;;;;5048886;28;20112;-61
2024/01/15 02:47:47;;;;;;;72.80;48.80;;;;;;;;;;5050450;28;20028;-61
2024/01/15 02:50:13;;;;;;;73.37;47.33;;;;;;;;;;5048372;28;20025;-61
2024/01/15 02:52:39;;;;;;;70.07;49.27;;;;;;;;;;5048815;28;20035;-61
2024/01/15 02:55:05;;;;;;;75.50;49.73;;;;;;;;;;5047881;28;20021;-61
2024/01/15 02:57:31;;;;;;;69.13;47.50;;;;;;;;;;5048708;28;20029;-62
2024/01/15 02:59:57;;;;;;;73.37;49.83;;;;;;;;;;5049954;28;20497;-61
2024/01/15 03:02:23;;;;;;;73.20;49.13;;;;;;;;;;5051411;28;20036;-61
2024/01/15 03:04:49;;;;;;;74.07;50.90;;;;;;;;;;5050949;28;20108;-61
2024/01/15 03:07:15;;;;;;;73.97;49.77;;;;;;;;;;5051853;28;20025;-61
2024/01/15 03:09:41;;;;;;;75.87;51.43;;;;;;;;;;5049367;28;20358;-61
2024/01/15 03:12:07;;;;;;;76.40;49.33;;;;;;;;;;5049934;28;20120;-62
2024/01/15 03:14:36;;;;;;;73.90;48.77;;;;;;;;;;5051681;28;20021;-61
2024/01/15 03:17:02;;;;;;;70.83;47.73;;;;;;;;;;5051082;28;20037;-61
2024/01/15 03:19:28;;;;;;;73.10;49.50;;;;;;;;;;5051381;28;20026;-61
2024/01/15 03:21:54;;;;;;;72.57;47.20;;;;;;;;;;5049572;28;20140;-61
2024/01/15 03:24:20;;;;;;;72.00;47.93;;;;;;;;;;5049777;28;20033;-61
2024/01/15 03:26:46;;;;;;;70.83;47.23;;;;;;;;;;5051755;28;20090;-61
2024/01/15 03:29:13;;;;;;;71.13;46.30;;;;;;;;;;5049680;28;20478;-62
2024/01/15 03:31:39;;;;;;;69.93;48.07;;;;;;;;;;5048865;28;20033;-61
2024/01/15 03:34:05;;;;;;;72.20;48.53;;;;;;;;;;5050865;28;20103;-61
2024/01/15 03:36:31;;;;;;;73.67;48.60;;;;;;;;;;5051819;28;20467;-61
2024/01/15 03:39:03;;;;;;;70.03;45.87;;;;;;;;;;5054842;28;20057;-61
2024/01/15 03:41:29;;;;;;;71.77;47.57;;;;;;;;;;5055411;28;20029;-61
2024/01/15 03:43:54;;;;;;;71.40;48.03;;;;;;;;;;5049991;28;20029;-60
2024/01/15 03:46:20;;;;;;;75.73;49.30;;;;;;;;;;5046897;28;20025;-61
2024/01/15 03:48:46;;;;;;;70.90;46.67;;;;;;;;;;5043776;28;20056;-61
2024/01/15 03:51:12;;;;;;;73.17;47.43;;;;;;;;;;5049697;28;20355;-61
2024/01/15 03:53:39;;;;;;;71.73;49.03;;;;;;;;;;5052402;28;20028;-61
2024/01/15 03:56:05;;;;;;;74.23;48.80;;;;;;;;;;5052142;28;20029;-61
2024/01/15 03:58:31;;;;;;;73.67;48.87;;;;;;;;;;5046000;28;20497;-61
2024/01/15 04:00:57;;;;;;;77.83;50.63;;;;;;;;;;5050317;28;20041;-62
2024/01/15 04:03:23;;;;;;;74.10;49.93;;;;;;;;;;5041993;28;20370;-61
2024/01/15 04:05:49;;;;;;;70.83;48.73;;;;;;;;;;5045687;28;20032;-61
2024/01/15 04:08:14;;;;;;;74.80;50.00;;;;;;;;;;5043141;28;20096;-61
2024/01/15 04:10:46;;;;;;;72.17;50.50;;;;;;;;;;5051538;28;20024;-61
2024/01/15 04:13:12;;;;;;;73.97;49.73;;;;;;;;;;5054691;28;20024;-61
2024/01/15 04:18:41;;;;;;;79.00;52.67;;;;;;;;;;5039577;28;20406;-61
2024/01/15 04:21:07;;;;;;;74.33;49.60;;;;;;;;;;5051291;28;20037;-61
2024/01/15 04:23:43;;;;;;;77.37;50.57;;;;;;;;;;5054511;28;20021;-62
2024/01/15 04:26:09;;;;;;;79.87;50.53;;;;;;;;;;5039910;28;20043;-61
2024/01/15 04:28:35;;;;;;;75.67;51.90;;;;;;;;;;5054635;28;20415;-61
2024/01/15 04:31:01;;;;;;;81.33;52.03;;;;;;;;;;5049226;28;20037;-61
2024/01/15 04:33:27;;;;;;;78.27;52.00;;;;;;;;;;5033007;28;20014;-61
2024/01/15 04:35:53;;;;;;;76.63;51.40;;;;;;;;;;5046224;28;20033;-61
2024/01/15 04:38:19;;;;;;;77.53;52.17;;;;;;;;;;5054107;28;20351;-62
2024/01/15 04:40:45;;;;;;;79.80;51.83;;;;;;;;;;5052673;28;20037;-61
2024/01/15 04:43:11;;;;;;;85.20;52.87;;;;;;;;;;5053902;28;20016;-61
2024/01/15 04:45:37;;;;;;;76.10;50.80;;;;;;;;;;5050568;28;20021;-61
2024/01/15 04:48:03;;;;;;;82.40;54.10;;;;;;;;;;5038602;28;20502;-62
2024/01/15 04:50:29;;;;;;;80.23;52.10;;;;;;;;;;5052123;28;20103;-61
2024/01/15 04:53:04;;;;;;;79.30;51.80;;;;;;;;;;5054265;28;20436;-61
2024/01/15 04:55:30;;;;;;;;;;;;;;;;;;5052152;28;20489;-62
2024/01/15 04:57:56;;;;;;;81.33;50.73;;;;;;;;;;5052434;28;19958;-62
2024/01/15 05:00:22;;;;;;;82.33;52.27;;;;;;;;;;5052906;28;20090;-61
2024/01/15 05:02:48;;;;;;;85.47;54.90;;;;;;;;;;5049917;28;20112;-61
2024/01/15 05:05:14;;;;;;;85.57;55.20;;;;;;;;;;5042112;28;20071;-61
2024/01/15 05:07:40;;;;;;;85.13;55.67;;;;;;;;;;5051399;28;20470;-61
2024/01/15 05:10:09;;;;;;;81.83;52.40;;;;;;;;;;5039741;28;20030;-61
2024/01/15 05:12:44;;;;;;;82.97;54.80;;;;;;;;;;5050318;28;20033;-62
2024/01/15 05:15:10;;;;;;;79.57;54.80;;;;;;;;;;5051015;28;20387;-62
2024/01/15 05:17:36;;;;;;;82.60;53.83;;;;;;;;;;5053306;28;20060;-61
2024/01/15 05:20:03;;;;;;;81.67;53.27;;;;;;;;;;5049466;28;20070;-62
2024/01/15 05:22:29;;;;;;;79.57;52.60;;;;;;;;;;5052437;28;20033;-62
2024/01/15 05:24:55;;;;;;;84.43;51.83;;;;;;;;;;5053202;28;20078;-61
2024/01/15 05:27:21;;;;;;;84.33;55.57;;;;;;;;;;5052513;28;20029;-61
2024/01/15 05:29:56;;;;;;;79.00;54.60;;;;;;;;;;5051992;28;20420;-61
2024/01/15 05:32:22;;;;;;;87.17;55.00;;;;;;;;;;5040648;28;20375;-61
2024/01/15 05:34:48;;;;;;;86.23;56.03;;;;;;;;;;5051494;28;20037;-61
2024/01/15 05:37:14;;;;;;;81.50;52.83;;;;;;;;;;5053583;28;20470;-61
2024/01/15 05:39:40;;;;;;;83.07;53.27;;;;;;;;;;5052356;28;20111;-61
2024/01/15 05:42:06;;;;;;;87.10;55.33;;;;;;;;;;5049787;28;20124;-61
2024/01/15 05:44:32;;;;;;;79.73;53.43;;;;;;;;;;5051365;28;20028;-61
2024/01/15 05:46:58;;;;;;;85.97;54.83;;;;;;;;;;5052509;28;20036;-61
2024/01/15 05:49:24;;;;;;;84.23;55.40;;;;;;;;;;5051989;28;20028;-61
2024/01/15 05:51:51;;;;;;;82.47;54.73;;;;;;;;;;5049575;28;20044;-61
2024/01/15 05:54:19;;;;;;;79.90;53.00;;;;;;;;;;5051068;28;20031;-61
2024/01/15 05:56:46;;;;;;;77.40;52.97;;;;;;;;;;5051010;28;20550;-61
2024/01/15 05:59:12;;;;;;;81.07;54.13;;;;;;;;;;5051439;28;20052;-61
2024/01/15 06:01:38;;;;;;;81.83;54.03;;;;;;;;;;5052616;28;20478;-61
2024/01/15 06:04:04;;;;;;;80.43;53.47;;;;;;;;;;5049432;28;20049;-62
2024/01/15 06:06:30;;;;;;;82.20;53.30;;;;;;;;;;5052798;28;20036;-61
2024/01/15 06:08:56;;;;;;;81.27;53.00;;;;;;;;;;5047976;28;20033;-61
2024/01/15 06:11:22;;;;;;;75.77;52.33;;;;;;;;;;5051989;28;20037;-61
2024/01/15 06:13:48;;;;;;;82.10;53.97;;;;;;;;;;5051713;28;20020;-61
2024/01/15 06:16:20;;;;;;;83.80;54.77;;;;;;;;;;5050393;28;20063;-61
2024/01/15 06:18:45;;;;;;;79.33;53.73;;;;;;;;;;5036866;28;20025;-61
2024/01/15 06:21:14;;;;;;;83.43;54.07;;;;;;;;;;5048540;28;20095;-61
2024/01/15 06:23:40;;;;;;;82.07;53.33;;;;;;;;;;5051182;28;20009;-61
2024/01/15 06:26:06;;;;;;;83.97;54.93;;;;;;;;;;5052234;28;20025;-61
2024/01/15 06:28:32;;;;;;;88.63;55.60;;;;;;;;;;5039454;28;20109;-61
2024/01/15 06:30:58;;;;;;;79.40;53.17;;;;;;;;;;5051100;28;20039;-61
2024/01/15 06:33:24;;;;;;;81.03;55.27;;;;;;;;;;5051881;28;20029;-61
2024/01/15 06:35:50;;;;;;;83.43;53.73;;;;;;;;;;5049869;28;20021;-61
2024/01/15 06:38:17;;;;;;;79.47;52.83;;;;;;;;;;5052165;28;20036;-61
2024/01/15 06:40:48;;;;;;;85.17;55.20;;;;;;;;;;5044690;28;20147;-62
2024/01/15 06:43:14;;;;;;;79.33;53.33;;;;;;;;;;5051728;28;20025;-62
2024/01/15 06:45:49;;;;;;;78.70;53.77;;;;;;;;;;5048441;28;20471;-62
2024/01/15 06:48:16;;;;;;;78.50;51.83;;;;;;;;;;5045837;28;20039;-62
2024/01/15 06:50:45;;;;;;;75.63;51.27;;;;;;;;;;5050572;28;20116;-62
2024/01/15 06:53:11;;;;;;;66.60;45.77;;;;;;;;;;5051650;28;20050;-61
2024/01/15 06:55:38;;;;;;;73.43;48.37;;;;;;;;;;5047632;28;20035;-62
2024/01/15 06:58:04;;;;;;;74.90;49.37;;;;;;;;;;5051875;28;20035;-62
2024/01/15 07:00:30;;;;;;;75.10;51.13;;;;;;;;;;5047256;28;20087;-62
2024/01/15 07:02:56;;;;;;;76.40;50.10;;;;;;;;;;5047115;28;20950;-62
2024/01/15 07:05:23;;;;;;;75.77;48.60;;;;;;;;;;5051248;28;20021;-60
2024/01/15 07:07:49;;;;;;;73.73;49.07;;;;;;;;;;5050137;28;20025;-61
2024/01/15 07:10:15;;;;;;;67.97;46.90;;;;;;;;;;5048675;28;20039;-62
2024/01/15 07:12:45;;;;;;;78.03;50.47;;;;;;;;;;5045745;28;20079;-62
2024/01/15 07:15:11;;;;;;;77.33;51.27;;;;;;;;;;5042906;28;20033;-60
2024/01/15 07:27:08;;;;;;;72.87;48.47;;;;;;;;;;5026005;28;20482;-61
2024/01/15 07:29:37;;;;;;;77.77;51.77;;;;;;;;;;5041671;28;20040;-60
2024/01/15 07:32:03;;;;;;;77.37;50.90;;;;;;;;;;5053227;28;20486;-60
2024/01/15 07:34:29;;;;;;;76.90;49.47;;;;;;;;;;5055045;28;20024;-60
2024/01/15 07:36:55;;;;;;;79.20;51.43;;;;;;;;;;5054329;28;20115;-61
2024/01/15 07:39:23;;;;;;;78.23;51.53;;;;;;;;;;5053036;28;20111;-61
2024/01/15 07:41:49;;;;;;;78.30;51.73;;;;;;;;;;5047692;28;20057;-60
2024/01/15 07:44:37;;;;;;;80.10;50.87;;;;;;;;;;5049854;28;20028;-61
2024/01/15 07:47:03;;;;;;;80.50;52.50;;;;;;;;;;5049847;28;20033;-61
2024/01/15 07:49:29;;;;;;;83.87;51.53;;;;;;;;;;5049635;28;20116;-61
2024/01/15 07:51:55;;;;;;;78.90;53.07;;;;;;;;;;5052656;28;20424;-61
2024/01/15 07:54:21;;;;;;;81.37;52.97;;;;;;;;;;5047292;28;20028;-61
2024/01/15 07:56:54;;;;;;;77.97;52.17;;;;;;;;;;5051517;28;20424;-61
2024/01/15 07:59:20;;;;;;;75.83;52.13;;;;;;;;;;5044388;28;20025;-61
2024/01/15 08:01:47;;;;;;;80.90;52.80;;;;;;;;;;5049253;28;20072;-60
2024/01/15 08:04:13;;;;;;;81.40;52.10;;;;;;;;;;5042410;28;20028;-60
2024/01/15 08:06:39;;;;;;;74.83;49.57;;;;;;;;;;5053582;28;20044;-60
2024/01/15 08:09:08;;;;;;;74.10;50.20;;;;;;;;;;5053418;28;20394;-60
2024/01/15 08:11:35;;;;;;;83.37;51.27;;;;;;;;;;5052362;28;20027;-61
2024/01/15 08:14:01;;;;;;;78.07;50.37;;;;;;;;;;5054666;28;20021;-60
2024/01/15 08:16:27;;;;;;;74.23;51.63;;;;;;;;;;5053446;28;20025;-60
2024/01/15 08:18:53;;;;;;;81.07;51.73;;;;;;;;;;5052354;28;20021;-60
2024/01/15 08:21:20;;;;;;;80.97;52.13;;;;;;;;;;5053058;28;20214;-60
2024/01/15 08:23:46;;;;;;;73.83;50.73;;;;;;;;;;5051124;28;20121;-60
2024/01/15 08:26:12;;;;;;;78.47;52.37;;;;;;;;;;5051239;28;20112;-60
2024/01/15 08:28:38;;;;;;;74.53;51.10;;;;;;;;;;5054198;28;20049;-60
2024/01/15 08:31:04;;;;;;;80.43;53.27;;;;;;;;;;5052971;28;20115;-61
2024/01/15 08:33:30;;;;;;;83.53;53.67;;;;;;;;;;5054486;28;20025;-61
2024/01/15 08:35:56;;;;;;;79.63;52.83;;;;;;;;;;5052698;28;20033;-61
2024/01/15 08:38:22;;;;;;;80.93;50.87;;;;;;;;;;5044270;28;20026;-61
2024/01/15 08:40:48;;;;;;;77.73;52.47;;;;;;;;;;5042400;28;20045;-60
2024/01/15 08:43:14;;;;;;;77.80;50.87;;;;;;;;;;5051879;28;20040;-61
2024/01/15 08:45:40;;;;;;;78.03;50.00;;;;;;;;;;5052293;28;20025;-61
2024/01/15 08:48:06;;;;;;;78.77;51.67;;;;;;;;;;5041301;28;20136;-61
2024/01/15 08:50:33;;;;;;;84.10;53.63;;;;;;;;;;5049183;28;20017;-61
2024/01/15 08:52:59;;;;;;;77.97;52.00;;;;;;;;;;5050262;28;20021;-61
2024/01/15 08:55:25;;;;;;;84.77;52.93;;;;;;;;;;5047746;28;20028;-61
2024/01/15 08:57:51;;;;;;;81.00;53.23;;;;;;;;;;5050641;28;20033;-61
2024/01/15 09:00:18;;;;;;;79.70;53.50;;;;;;;;;;5050087;28;20067;-61
2024/01/15 09:02:44;;;;;;;81.90;52.87;;;;;;;;;;5052520;28;20047;-61
2024/01/15 09:05:10;;;;;;;80.50;52.83;;;;;;;;;;5051333;28;20203;-61
2024/01/15 09:07:36;;;;;;;82.87;52.50;;;;;;;;;;5052569;28;20768;-61
2024/01/15 09:10:03;;;;;;;79.73;51.97;;;;;;;;;;5042003;28;20032;-61
2024/01/15 09:12:39;;;;;;;81.27;55.63;;;;;;;;;;5051739;28;20028;-61
2024/01/15 09:15:05;;;;;;;85.30;52.43;;;;;;;;;;5053534;28;20107;-61
2024/01/15 09:17:31;;;;;;;81.13;53.90;;;;;;;;;;5052734;28;20025;-61
2024/01/15 09:19:58;;;;;;;75.90;50.93;;;;;;;;;;5053435;28;20017;-61
2024/01/15 09:22:24;;;;;;;78.33;52.33;;;;;;;;;;5052232;28;20060;-61
2024/01/15 09:24:49;;;;;;;78.63;51.83;;;;;;;;;;5049169;28;20503;-61
2024/01/15 09:27:16;;;;;;;79.03;52.70;;;;;;;;;;5053160;28;20069;-61
2024/01/15 09:29:45;;;;;;;84.30;51.97;;;;;;;;;;5051200;28;20082;-61
2024/01/15 09:32:11;;;;;;;77.53;51.47;;;;;;;;;;5050854;28;20083;-61
2024/01/15 09:34:38;;;;;;;88.23;55.73;;;;;;;;;;5050255;28;20029;-61
2024/01/15 09:37:04;;;;;;;88.93;55.50;;;;;;;;;;5052943;28;20057;-61
2024/01/15 09:39:30;;;;;;;82.80;55.13;;;;;;;;;;5052149;28;20056;-61
2024/01/15 09:41:57;;;;;;;85.90;55.07;;;;;;;;;;5051494;28;20458;-61
2024/01/15 09:44:23;;;;;;;86.40;55.13;;;;;;;;;;5050116;28;20039;-61
2024/01/15 09:52:57;;;;;;;85.73;54.40;;;;;;;;;;5047346;28;20040;-61
2024/01/15 09:55:23;;;;;;;90.57;56.70;;;;;;;;;;5050582;28;20037;-62
2024/01/15 09:57:50;;;;;;;94.37;58.00;;;;;;;;;;5039445;28;20017;-61
2024/01/15 10:00:19;;;;;;;93.57;57.30;;;;;;;;;;5049272;28;20321;-61
2024/01/15 10:02:45;;;;;;;88.70;57.10;;;;;;;;;;5051613;28;20039;-61
2024/01/15 10:05:12;;;;;;;86.07;55.50;;;;;;;;;;5050517;28;20040;-61
2024/01/15 10:07:39;;;;;;;88.90;56.13;;;;;;;;;;5041894;28;20024;-61
2024/01/15 10:10:07;;;;;;;84.50;53.93;;;;;;;;;;5046755;28;20478;-62
2024/01/15 10:12:33;;;;;;;77.40;50.23;;;;;;;;;;5050877;28;20486;-62
2024/01/15 10:14:59;;;;;;;75.67;50.13;;;;;;;;;;5050867;28;20025;-61
2024/01/15 10:17:28;;;;;;;73.17;49.60;;;;;;;;;;5044928;28;20036;-61
2024/01/15 10:19:54;;;;;;;71.43;49.43;;;;;;;;;;5046540;28;20029;-61
2024/01/15 10:22:23;;;;;;;72.77;49.27;;;;;;;;;;5046332;28;20102;-61
2024/01/15 10:24:49;;;;;;;75.70;49.53;;;;;;;;;;5047452;28;20433;-62
2024/01/15 10:27:15;;;;;;;67.77;45.63;;;;;;;;;;5047611;28;20136;-61
2024/01/15 10:29:42;;;;;;;64.53;45.27;;;;;;;;;;5046119;28;20030;-61
2024/01/15 10:32:11;;;;;;;65.07;45.47;;;;;;;;;;5047695;28;20025;-61
2024/01/15 10:34:41;;;;;;;72.17;48.13;;;;;;;;;;5048794;28;20040;-61
2024/01/15 10:37:10;;;;;;;66.17;46.00;;;;;;;;;;5046220;28;20031;-61
2024/01/15 10:39:36;;;;;;;69.47;46.90;;;;;;;;;;5049538;28;20025;-61
2024/01/15 10:42:03;;;;;;;64.37;45.80;;;;;;;;;;5046764;28;20053;-61
2024/01/15 10:44:29;;;;;;;63.63;44.27;;;;;;;;;;5048831;28;20501;-61
2024/01/15 10:46:56;;;;;;;61.33;42.17;;;;;;;;;;5052020;28;20025;-61
2024/01/15 10:49:24;;;;;;;57.43;41.77;;;;;;;;;;5049382;28;20039;-61
2024/01/15 10:51:51;;;;;;;59.47;42.30;;;;;;;;;;5051838;28;20017;-61
2024/01/15 10:54:17;;;;;;;63.97;44.07;;;;;;;;;;5050798;28;20033;-61
2024/01/15 10:56:44;;;;;;;61.90;42.43;;;;;;;;;;5051944;28;20028;-61
2024/01/15 10:59:11;;;;;;;58.50;41.97;;;;;;;;;;5049318;28;20029;-61
2024/01/15 11:01:37;;;;;;;56.37;39.70;;;;;;;;;;5051478;28;20036;-61
2024/01/15 11:04:04;;;;;;;55.53;37.57;;;;;;;;;;5046406;28;20031;-61
2024/01/15 11:06:41;;;;;;;56.03;38.87;;;;;;;;;;5051238;28;20095;-61
2024/01/15 11:09:08;;;;;;;55.00;38.90;;;;;;;;;;5049043;28;20394;-61
2024/01/15 11:11:38;;;;;;;53.30;37.83;;;;;;;;;;5045062;28;20039;-61
2024/01/15 11:14:06;;;;;;;54.33;38.00;;;;;;;;;;5046002;28;20029;-62
2024/01/15 11:16:51;;;;;;;52.10;35.87;;;;;;;;;;5050703;28;20055;-61
2024/01/15 11:19:19;;;;;;;50.65;34.78;;;;;;;;;;5049761;28;20036;-61
2024/01/15 11:21:45;;;;;;;53.43;36.30;;;;;;;;;;5051441;28;20033;-61
2024/01/15 11:24:31;;;;;;;53.60;36.13;;;;;;;;;;5031554;28;20052;-61
2024/01/15 11:26:57;;;;;;;52.13;35.90;;;;;;;;;;5050002;28;20410;-61
2024/01/15 11:29:37;;;;;;;55.73;37.63;;;;;;;;;;5040699;28;20024;-62
2024/01/15 11:32:06;;;;;;;51.80;36.23;;;;;;;;;;5049105;28;20037;-61
2024/01/15 11:34:51;;;;;;;55.73;38.03;;;;;;;;;;5054622;28;20405;-62
2024/01/15 11:37:17;;;;;;;50.53;35.33;;;;;;;;;;5050186;28;20103;-61
2024/01/15 11:39:44;;;;;;;50.37;34.70;;;;;;;;;;5048260;28;20036;-62
2024/01/15 11:42:11;;;;;;;44.70;32.37;;;;;;;;;;5050174;28;20116;-61
2024/01/15 11:44:38;;;;;;;50.67;32.50;;;;;;;;;;5049848;28;20016;-61
2024/01/15 11:47:05;;;;;;;48.10;31.40;;;;;;;;;;5050445;28;20434;-61
2024/01/15 11:49:48;;;;;;;39.33;29.50;;;;;;;;;;5050163;28;20052;-62
2024/01/15 11:52:17;;;;;;;39.27;29.87;;;;;;;;;;5049824;28;20544;-62
2024/01/15 11:54:46;;;;;;;37.63;26.23;;;;;;;;;;5050007;28;20053;-61
2024/01/15 11:57:15;;;;;;;32.20;23.17;;;;;;;;;;5051204;28;20367;-61
2024/01/15 11:59:50;;;;;;;31.93;23.80;;;;;;;;;;5052609;28;20033;-61
2024/01/15 12:02:16;;;;;;;29.73;21.10;;;;;;;;;;5055038;28;20037;-62
2024/01/15 12:04:42;;;;;;;33.00;22.83;;;;;;;;;;5053608;28;20455;-61
2024/01/15 12:07:08;;;;;;;30.30;22.00;;;;;;;;;;5055106;28;20025;-62
2024/01/15 12:09:34;;;;;;;27.93;20.97;;;;;;;;;;5051982;28;20483;-61
2024/01/15 12:12:08;;;;;;;27.87;20.57;;;;;;;;;;5055118;28;20115;-62
2024/01/15 12:14:34;;;;;;;30.57;21.77;;;;;;;;;;5053141;28;20025;-61
2024/01/15 12:17:01;;;;;;;32.80;21.70;;;;;;;;;;5053422;28;20029;-62
2024/01/15 12:19:27;;;;;;;31.57;22.77;;;;;;;;;;5053719;28;20102;-62
2024/01/15 12:21:53;;;;;;;35.10;23.20;;;;;;;;;;5054469;28;20098;-61
2024/01/15 12:24:19;;;;;;;30.70;23.07;;;;;;;;;;5053390;28;20471;-62
2024/01/15 12:26:45;;;;;;;33.73;24.43;;;;;;;;;;5052993;28;20091;-61
2024/01/15 12:29:14;;;;;;;30.73;22.03;;;;;;;;;;5050995;28;20083;-61
2024/01/15 12:31:40;;;;;;;28.47;22.07;;;;;;;;;;5054271;28;20040;-61
2024/01/15 12:34:06;;;;;;;33.33;23.13;;;;;;;;;;5054306;28;20115;-61
2024/01/15 12:36:32;;;;;;;37.07;24.67;;;;;;;;;;5053447;28;20057;-62
2024/01/15 12:39:01;;;;;;;33.80;24.80;;;;;;;;;;5053057;28;20032;-61
2024/01/15 12:50:38;;;;;;;32.00;21.33;;;;;;;;;;5038840;28;20032;-61
2024/01/15 12:53:04;;;;;;;27.27;21.10;;;;;;;;;;5053837;28;20024;-62
2024/01/15 12:55:30;;;;;;;29.97;21.00;;;;;;;;;;5052436;28;20459;-61
2024/01/15 12:57:56;;;;;;;30.47;22.40;;;;;;;;;;5053894;28;20031;-62
2024/01/15 13:00:28;;;;;;;32.60;22.30;;;;;;;;;;5051574;28;20372;-61
2024/01/15 13:02:56;;;;;;;34.77;23.37;;;;;;;;;;5040486;28;20122;-61
2024/01/15 13:05:22;;;;;;;33.30;24.33;;;;;;;;;;5049952;28;20451;-61
2024/01/15 13:07:48;;;;;;;36.80;25.47;;;;;;;;;;5048875;28;20040;-61
2024/01/15 13:10:14;;;;;;;38.53;26.07;;;;;;;;;;5050663;28;20028;-61
2024/01/15 13:12:41;;;;;;;37.33;25.67;;;;;;;;;;5053560;28;20029;-62
2024/01/15 13:15:11;;;;;;;39.17;27.97;;;;;;;;;;5049494;28;20033;-61
2024/01/15 13:17:37;;;;;;;36.40;26.23;;;;;;;;;;5052368;28;20029;-62
2024/01/15 13:20:03;;;;;;;35.60;25.70;;;;;;;;;;5052311;28;20093;-62
2024/01/15 13:22:31;;;;;;;35.17;24.73;;;;;;;;;;5048532;28;20036;-61
2024/01/15 13:25:00;;;;;;;31.33;21.60;;;;;;;;;;5051219;28;20060;-62
2024/01/15 13:27:26;;;;;;;31.17;21.43;;;;;;;;;;5051945;28;20110;-62
2024/01/15 13:29:52;;;;;;;27.13;21.50;;;;;;;;;;5051022;28;20024;-61
2024/01/15 13:32:25;;;;;;;25.33;20.08;;;;;;;;;;5055592;28;20048;-61
2024/01/15 13:34:51;;;;;;;25.77;20.23;;;;;;;;;;5051016;28;20013;-61
2024/01/15 13:37:17;;;;;;;27.80;21.77;;;;;;;;;;5050435;28;20032;-61
2024/01/15 13:39:43;;;;;;;28.70;20.73;;;;;;;;;;5045390;28;20373;-61
2024/01/15 13:42:11;;;;;;;32.80;21.67;;;;;;;;;;5048252;28;20033;-61
2024/01/15 13:44:37;;;;;;;28.25;22.08;;;;;;;;;;5044798;28;20074;-62
2024/01/15 13:47:05;;;;;;;33.10;22.55;;;;;;;;;;5049094;28;20044;-61
2024/01/15 13:49:31;;;;;;;31.95;21.95;;;;;;;;;;5050394;28;20017;-62
2024/01/15 13:51:58;;;;;;;28.27;20.75;;;;;;;;;;5052756;28;20029;-61
2024/01/15 13:54:24;;;;;;;26.97;19.17;;;;;;;;;;5046740;28;20025;-61
2024/01/15 13:56:50;;;;;;;28.17;20.20;;;;;;;;;;5051307;28;20383;-61
2024/01/15 13:59:16;;;;;;;25.98;18.90;;;;;;;;;;5050162;28;20037;-61
2024/01/15 14:01:42;;;;;;;26.38;19.52;;;;;;;;;;5052109;28;20052;-62
2024/01/15 14:04:08;;;;;;;23.23;18.50;;;;;;;;;;5051496;28;20171;-61
2024/01/15 14:06:46;;;;;;;22.55;16.23;;;;;;;;;;5052585;28;20121;-61
2024/01/15 14:09:14;;;;;;;17.33;14.35;;;;;;;;;;5042088;28;20037;-61
2024/01/15 14:11:40;;;;;;;21.63;14.63;;;;;;;;;;5052610;28;20029;-61
2024/01/15 14:14:07;;;;;;;18.23;14.37;;;;;;;;;;5051383;28;20524;-61
2024/01/15 14:16:34;;;;;;;23.05;15.55;;;;;;;;;;5049073;28;20036;-62
2024/01/15 14:19:02;;;;;;;18.70;13.68;;;;;;;;;;5048978;28;20072;-62
2024/01/15 14:21:34;;;;;;;19.30;14.40;;;;;;;;;;5037243;28;20120;-61
2024/01/15 14:24:00;;;;;;;19.25;13.52;;;;;;;;;;5042214;28;20518;-62
2024/01/15 14:26:26;;;;;;;18.40;13.93;;;;;;;;;;5052107;28;20109;-60
2024/01/15 14:28:52;;;;;;;21.42;14.80;;;;;;;;;;5051148;28;20091;-61
2024/01/15 14:31:18;;;;;;;18.75;14.02;;;;;;;;;;5048554;28;20055;-61
2024/01/15 14:33:44;;;;;;;16.92;13.88;;;;;;;;;;5050864;28;20028;-61
2024/01/15 14:36:10;;;;;;;19.45;15.32;;;;;;;;;;5051933;28;20116;-61
2024/01/15 14:38:36;;;;;;;18.70;14.77;;;;;;;;;;5049942;28;20123;-61
2024/01/15 14:41:02;;;;;;;20.02;14.00;;;;;;;;;;5051979;28;20112;-61
2024/01/15 14:43:28;;;;;;;18.85;14.35;;;;;;;;;;5047130;28;20021;-61
2024/01/15 14:45:54;;;;;;;18.60;14.40;;;;;;;;;;5051149;28;20040;-61